EAG5502 OPSD-VILH
Flight info
| Callsign | EAG5502 |
|---|---|
| Flight time | 0h 31m |
| Altitude | 27000 |
| Route | 3444N07620E 3420N07651E DCT TUNPU DCT 3400N07739E DCT LEH DCT 3408N07733E 3411N07729E 3408N07727E DCT 3407N07729E |
| Aircraft | B738/M-SDE2E3FGHIRWXY/LB1 |
Departure
| Time | 2026-04-21 22:43 |
|---|---|
| Airport | Skardu International Airport (OPSD) |
Arrival
| Time | 2026-04-21 23:14 |
|---|---|
| Airport | Leh Kushok Bakula Rimpochee Airport (VILH) |
| Time | Latitude | Longitude | Altitude | Speed | Heading |
|---|---|---|---|---|---|
| 2026-04-21 22:32 | 35.33074 | 75.54152 | 7300 ft | 0 kts | 148° |
| 2026-04-21 22:36 | 35.33070 | 75.54151 | 7300 ft | 1 kts | 186° |
| 2026-04-21 22:37 | 35.33074 | 75.54139 | 7302 ft | 3 kts | 320° |
| 2026-04-21 22:37 | 35.33131 | 75.54152 | 7298 ft | 15 kts | 43° |
| 2026-04-21 22:37 | 35.33201 | 75.54276 | 7295 ft | 12 kts | 56° |
| 2026-04-21 22:37 | 35.33220 | 75.54310 | 7295 ft | 0 kts | 56° |
| 2026-04-21 22:38 | 35.33222 | 75.54315 | 7298 ft | 3 kts | 57° |
| 2026-04-21 22:38 | 35.33176 | 75.54401 | 7299 ft | 26 kts | 146° |
| 2026-04-21 22:38 | 35.32993 | 75.54550 | 7300 ft | 31 kts | 147° |
| 2026-04-21 22:38 | 35.32854 | 75.54730 | 7304 ft | 29 kts | 115° |
| 2026-04-21 22:39 | 35.32767 | 75.54942 | 7308 ft | 27 kts | 116° |
| 2026-04-21 22:39 | 35.32774 | 75.55056 | 7309 ft | 17 kts | 356° |
| 2026-04-21 22:39 | 35.32922 | 75.54950 | 7307 ft | 33 kts | 328° |
| 2026-04-21 22:39 | 35.33159 | 75.54763 | 7302 ft | 47 kts | 327° |
| 2026-04-21 22:40 | 35.33432 | 75.54546 | 7297 ft | 45 kts | 327° |
| 2026-04-21 22:40 | 35.33633 | 75.54387 | 7297 ft | 20 kts | 327° |
| 2026-04-21 22:40 | 35.33751 | 75.54293 | 7291 ft | 22 kts | 327° |
| 2026-04-21 22:40 | 35.33886 | 75.54186 | 7290 ft | 23 kts | 327° |
| 2026-04-21 22:41 | 35.34063 | 75.54046 | 7289 ft | 36 kts | 327° |
| 2026-04-21 22:41 | 35.34271 | 75.53877 | 7295 ft | 35 kts | 326° |
| 2026-04-21 22:41 | 35.34508 | 75.53690 | 7284 ft | 50 kts | 327° |
| 2026-04-21 22:41 | 35.34791 | 75.53468 | 7284 ft | 47 kts | 327° |
| 2026-04-21 22:42 | 35.35055 | 75.53259 | 7276 ft | 43 kts | 327° |
| 2026-04-21 22:42 | 35.35264 | 75.53083 | 7273 ft | 25 kts | 296° |
| 2026-04-21 22:42 | 35.35206 | 75.52923 | 7268 ft | 21 kts | 237° |
| 2026-04-21 22:42 | 35.35067 | 75.52899 | 7267 ft | 43 kts | 147° |
| 2026-04-21 22:43 | 35.34596 | 75.53275 | 7272 ft | 117 kts | 147° |
| 2026-04-21 22:43 | 35.33731 | 75.53967 | 7297 ft | 177 kts | 147° |
| 2026-04-21 22:43 | 35.32639 | 75.54886 | 7854 ft | 195 kts | 146° |
| 2026-04-21 22:43 | 35.31506 | 75.55874 | 8641 ft | 206 kts | 141° |
| 2026-04-21 22:44 | 35.30732 | 75.57362 | 9358 ft | 214 kts | 106° |
| 2026-04-21 22:44 | 35.30407 | 75.59158 | 10188 ft | 217 kts | 101° |
| 2026-04-21 22:44 | 35.30162 | 75.60924 | 11122 ft | 209 kts | 99° |
| 2026-04-21 22:44 | 35.29976 | 75.62675 | 11876 ft | 207 kts | 97° |
| 2026-04-21 22:45 | 35.29807 | 75.64433 | 12545 ft | 209 kts | 97° |
| 2026-04-21 22:45 | 35.29654 | 75.66202 | 13257 ft | 209 kts | 96° |
| 2026-04-21 22:45 | 35.29511 | 75.67974 | 13915 ft | 213 kts | 96° |
| 2026-04-21 22:45 | 35.29366 | 75.69773 | 14507 ft | 213 kts | 96° |
| 2026-04-21 22:46 | 35.29222 | 75.71584 | 15029 ft | 215 kts | 96° |
| 2026-04-21 22:46 | 35.29079 | 75.73424 | 15546 ft | 219 kts | 96° |
| 2026-04-21 22:46 | 35.28941 | 75.75297 | 16026 ft | 223 kts | 96° |
| 2026-04-21 22:46 | 35.28802 | 75.77192 | 16568 ft | 225 kts | 96° |
| 2026-04-21 22:47 | 35.28662 | 75.79104 | 17089 ft | 226 kts | 96° |
| 2026-04-21 22:47 | 35.28248 | 75.80971 | 17481 ft | 230 kts | 126° |
| 2026-04-21 22:47 | 35.27180 | 75.82384 | 18020 ft | 227 kts | 143° |
| 2026-04-21 22:47 | 35.25938 | 75.83604 | 18492 ft | 230 kts | 146° |
| 2026-04-21 22:48 | 35.24662 | 75.84799 | 18910 ft | 232 kts | 145° |
| 2026-04-21 22:48 | 35.23374 | 75.86000 | 19331 ft | 234 kts | 146° |
| 2026-04-21 22:48 | 35.22073 | 75.87217 | 19724 ft | 235 kts | 145° |
| 2026-04-21 22:48 | 35.20775 | 75.88435 | 20163 ft | 236 kts | 146° |
| 2026-04-21 22:49 | 35.19465 | 75.89669 | 20526 ft | 239 kts | 146° |
| 2026-04-21 22:49 | 35.18144 | 75.90916 | 20905 ft | 241 kts | 146° |
| 2026-04-21 22:49 | 35.16810 | 75.92178 | 21270 ft | 244 kts | 146° |
| 2026-04-21 22:49 | 35.15478 | 75.93439 | 21668 ft | 246 kts | 146° |
| 2026-04-21 22:50 | 35.14103 | 75.94745 | 22112 ft | 247 kts | 146° |
| 2026-04-21 22:50 | 35.12769 | 75.96012 | 22477 ft | 247 kts | 146° |
| 2026-04-21 22:50 | 35.11419 | 75.97292 | 22803 ft | 249 kts | 146° |
| 2026-04-21 22:50 | 35.10042 | 75.98597 | 23143 ft | 252 kts | 146° |
| 2026-04-21 22:51 | 35.08652 | 75.99915 | 23497 ft | 254 kts | 146° |
| 2026-04-21 22:51 | 35.07310 | 76.01328 | 23850 ft | 257 kts | 137° |
| 2026-04-21 22:51 | 35.06104 | 76.02952 | 24139 ft | 260 kts | 134° |
| 2026-04-21 22:51 | 35.04922 | 76.04637 | 24389 ft | 263 kts | 134° |
| 2026-04-21 22:52 | 35.03731 | 76.06341 | 24597 ft | 267 kts | 133° |
| 2026-04-21 22:52 | 35.02490 | 76.08106 | 24653 ft | 279 kts | 134° |
| 2026-04-21 22:52 | 35.01199 | 76.09928 | 24760 ft | 290 kts | 134° |
| 2026-04-21 22:52 | 34.99848 | 76.11823 | 24824 ft | 302 kts | 134° |
| 2026-04-21 22:53 | 34.98443 | 76.13783 | 24890 ft | 312 kts | 134° |
| 2026-04-21 22:53 | 34.96991 | 76.15806 | 24929 ft | 322 kts | 134° |
| 2026-04-21 22:53 | 34.95492 | 76.17889 | 24992 ft | 332 kts | 134° |
| 2026-04-21 22:53 | 34.93935 | 76.20047 | 25023 ft | 345 kts | 133° |
| 2026-04-21 22:54 | 34.92317 | 76.22283 | 25104 ft | 359 kts | 133° |
| 2026-04-21 22:54 | 34.90641 | 76.24596 | 25505 ft | 365 kts | 133° |
| 2026-04-21 22:54 | 34.88969 | 76.26907 | 26121 ft | 365 kts | 133° |
| 2026-04-21 22:54 | 34.87284 | 76.29232 | 26661 ft | 367 kts | 133° |
| 2026-04-21 22:55 | 34.85604 | 76.31547 | 27129 ft | 371 kts | 133° |
| 2026-04-21 22:55 | 34.83875 | 76.33927 | 27223 ft | 383 kts | 133° |
| 2026-04-21 22:55 | 34.82074 | 76.36401 | 27269 ft | 397 kts | 133° |
| 2026-04-21 22:55 | 34.80207 | 76.38963 | 27262 ft | 411 kts | 133° |
| 2026-04-21 22:56 | 34.78282 | 76.41602 | 27255 ft | 424 kts | 133° |
| 2026-04-21 22:56 | 34.76296 | 76.44327 | 27259 ft | 436 kts | 133° |
| 2026-04-21 22:56 | 34.74258 | 76.47121 | 27246 ft | 448 kts | 133° |
| 2026-04-21 22:56 | 34.72168 | 76.49985 | 27240 ft | 457 kts | 133° |
| 2026-04-21 22:57 | 34.70033 | 76.52906 | 27265 ft | 467 kts | 133° |
| 2026-04-21 22:57 | 34.67856 | 76.55884 | 27257 ft | 475 kts | 133° |
| 2026-04-21 22:57 | 34.65642 | 76.58907 | 27253 ft | 483 kts | 133° |
| 2026-04-21 22:57 | 34.63391 | 76.61980 | 27251 ft | 489 kts | 133° |
| 2026-04-21 22:58 | 34.61116 | 76.65082 | 27267 ft | 494 kts | 133° |
| 2026-04-21 22:58 | 34.58838 | 76.68186 | 27244 ft | 492 kts | 133° |
| 2026-04-21 22:58 | 34.56565 | 76.71281 | 27237 ft | 491 kts | 133° |
| 2026-04-21 22:58 | 34.54292 | 76.74373 | 27262 ft | 489 kts | 133° |
| 2026-04-21 22:59 | 34.52031 | 76.77446 | 27223 ft | 489 kts | 133° |
| 2026-04-21 22:59 | 34.49769 | 76.80517 | 27272 ft | 487 kts | 133° |
| 2026-04-21 22:59 | 34.47707 | 76.83774 | 27264 ft | 489 kts | 122° |
| 2026-04-21 22:59 | 34.46001 | 76.87361 | 27282 ft | 492 kts | 119° |
| 2026-04-21 23:00 | 34.44385 | 76.91017 | 27274 ft | 495 kts | 118° |
| 2026-04-21 23:00 | 34.42786 | 76.94712 | 27257 ft | 494 kts | 118° |
| 2026-04-21 23:00 | 34.41225 | 76.98342 | 27175 ft | 477 kts | 118° |
| 2026-04-21 23:00 | 34.39702 | 77.01856 | 26856 ft | 466 kts | 119° |
| 2026-04-21 23:01 | 34.38144 | 77.05250 | 26341 ft | 460 kts | 120° |
| 2026-04-21 23:01 | 34.36587 | 77.08570 | 26041 ft | 442 kts | 120° |
| 2026-04-21 23:01 | 34.35106 | 77.11719 | 25926 ft | 420 kts | 120° |
| 2026-04-21 23:01 | 34.33696 | 77.14715 | 25806 ft | 400 kts | 120° |
| 2026-04-21 23:02 | 34.32351 | 77.17572 | 25705 ft | 382 kts | 120° |
| 2026-04-21 23:02 | 34.31060 | 77.20321 | 25445 ft | 372 kts | 121° |
| 2026-04-21 23:02 | 34.29788 | 77.23036 | 25125 ft | 370 kts | 120° |
| 2026-04-21 23:02 | 34.28521 | 77.25745 | 24775 ft | 370 kts | 120° |
| 2026-04-21 23:03 | 34.27255 | 77.28451 | 24437 ft | 369 kts | 120° |
| 2026-04-21 23:03 | 34.25997 | 77.31146 | 24134 ft | 367 kts | 120° |
| 2026-04-21 23:03 | 34.24750 | 77.33824 | 23854 ft | 365 kts | 121° |
| 2026-04-21 23:03 | 34.23511 | 77.36490 | 23509 ft | 363 kts | 120° |
| 2026-04-21 23:04 | 34.22779 | 77.38304 | 23290 ft | 363 kts | 110° |
| 2026-04-21 23:04 | 34.21945 | 77.42235 | 22876 ft | 359 kts | 103° |
| 2026-04-21 23:04 | 34.21588 | 77.44188 | 22664 ft | 358 kts | 103° |
| 2026-04-21 23:04 | 34.21060 | 77.47112 | 22348 ft | 356 kts | 102° |
| 2026-04-21 23:05 | 34.20542 | 77.50001 | 22029 ft | 348 kts | 102° |
| 2026-04-21 23:05 | 34.19941 | 77.52762 | 21923 ft | 331 kts | 114° |
| 2026-04-21 23:05 | 34.18169 | 77.55516 | 21779 ft | 302 kts | 148° |
| 2026-04-21 23:05 | 34.16328 | 77.56475 | 21671 ft | 279 kts | 174° |
| 2026-04-21 23:06 | 34.15058 | 77.56499 | 21602 ft | 262 kts | 194° |
| 2026-04-21 23:06 | 34.13465 | 77.55693 | 21394 ft | 242 kts | 222° |
| 2026-04-21 23:06 | 34.12478 | 77.54125 | 20940 ft | 235 kts | 252° |
| 2026-04-21 23:06 | 34.12332 | 77.52192 | 20444 ft | 234 kts | 282° |
| 2026-04-21 23:07 | 34.13047 | 77.50440 | 19986 ft | 235 kts | 306° |
| 2026-04-21 23:07 | 34.14091 | 77.48929 | 19580 ft | 235 kts | 312° |
| 2026-04-21 23:07 | 34.15365 | 77.47685 | 19151 ft | 236 kts | 322° |
| 2026-04-21 23:07 | 34.16700 | 77.46534 | 18770 ft | 235 kts | 322° |
| 2026-04-21 23:08 | 34.18031 | 77.45389 | 18341 ft | 234 kts | 322° |
| 2026-04-21 23:08 | 34.19355 | 77.44253 | 17918 ft | 234 kts | 322° |
| 2026-04-21 23:08 | 34.20586 | 77.42995 | 17454 ft | 232 kts | 305° |
| 2026-04-21 23:08 | 34.21152 | 77.41214 | 16988 ft | 229 kts | 272° |
| 2026-04-21 23:09 | 34.20807 | 77.39388 | 16587 ft | 229 kts | 237° |
| 2026-04-21 23:09 | 34.19584 | 77.38206 | 16128 ft | 231 kts | 198° |
| 2026-04-21 23:09 | 34.17982 | 77.38253 | 15666 ft | 232 kts | 158° |
| 2026-04-21 23:09 | 34.16770 | 77.39461 | 15277 ft | 230 kts | 129° |
| 2026-04-21 23:10 | 34.15654 | 77.40797 | 15149 ft | 215 kts | 136° |
| 2026-04-21 23:10 | 34.14669 | 77.42035 | 14981 ft | 200 kts | 133° |
| 2026-04-21 23:10 | 34.13795 | 77.43188 | 14871 ft | 174 kts | 133° |
| 2026-04-21 23:10 | 34.13114 | 77.44366 | 14344 ft | 173 kts | 105° |
| 2026-04-21 23:11 | 34.12943 | 77.45782 | 13825 ft | 169 kts | 106° |
| 2026-04-21 23:11 | 34.12491 | 77.47116 | 13246 ft | 174 kts | 115° |
| 2026-04-21 23:11 | 34.11930 | 77.48391 | 12757 ft | 169 kts | 117° |
| 2026-04-21 23:11 | 34.11652 | 77.49702 | 12189 ft | 164 kts | 78° |
| 2026-04-21 23:12 | 34.12233 | 77.50902 | 11602 ft | 164 kts | 58° |
| 2026-04-21 23:12 | 34.12446 | 77.52153 | 11443 ft | 152 kts | 104° |
| 2026-04-21 23:12 | 34.11742 | 77.53125 | 11511 ft | 165 kts | 154° |
| 2026-04-21 23:12 | 34.10615 | 77.53120 | 11654 ft | 172 kts | 208° |
| 2026-04-21 23:13 | 34.09998 | 77.51965 | 11832 ft | 170 kts | 270° |
| 2026-04-21 23:13 | 34.10530 | 77.50717 | 11863 ft | 179 kts | 325° |
| 2026-04-21 23:13 | 34.11691 | 77.50462 | 11623 ft | 172 kts | 17° |
| 2026-04-21 23:13 | 34.12564 | 77.51366 | 11186 ft | 169 kts | 61° |
| 2026-04-21 23:14 | 34.13024 | 77.52636 | 10784 ft | 161 kts | 70° |
| 2026-04-21 23:14 | 34.13372 | 77.53825 | 10646 ft | 135 kts | 71° |
| 2026-04-21 23:14 | 34.13623 | 77.54695 | 10720 ft | 79 kts | 70° |
| 2026-04-21 23:14 | 34.13699 | 77.54936 | 10747 ft | 12 kts | 42° |
| 2026-04-21 23:15 | 34.13773 | 77.54916 | 10753 ft | 11 kts | 336° |
| 2026-04-21 23:15 | 34.13847 | 77.54888 | 10762 ft | 11 kts | 351° |
| 2026-04-21 23:15 | 34.13920 | 77.54864 | 10776 ft | 11 kts | 338° |
| 2026-04-21 23:15 | 34.13973 | 77.54834 | 10774 ft | 0 kts | 336° |
| 2026-04-21 23:16 | 34.14018 | 77.54827 | 10775 ft | 13 kts | 22° |
| 2026-04-21 23:16 | 34.14010 | 77.54905 | 10781 ft | 10 kts | 148° |
| 2026-04-21 23:16 | 34.14000 | 77.54911 | 10781 ft | 0 kts | 154° |